KDRA

Desert Rock Airport

Mercury, Nevada, USA
METAR KDRA 150255Z AUTO 24007KT 10SM CLR 34/05 A2986 RMK AO2 SLP053 T03390050 53002
Observed Flight Rules
Aug-15 @ 02:55 UTC (41 minutes ago) Visual Flight Rules
Wind Visibility Clouds
240° at 7 knots 10 miles
  • Clear skies
Temperatures Readings
Current 34°C / 93°F
Dewpoint 5°C / 41°F
Humidity 16%
Altimeter 29.86" Hg
Pressure 1005.3 hPa
Elevation 1006
METAR KDRA 150255Z AUTO 24007KT 10SM CLR 34/05 A2986 RMK AO2 SLP053 T03390050 53002
Observed Flight Rules
Aug-15 @ 02:55 UTC
(41 minutes ago)
VFR
Wind Visibility
240° at 7 knots 10 miles
Clouds
  • Clear skies
Temperature Dewpoint
34°C / 93°F 5°C / 41°F
Humidity Altimeter Pressure
16% 29.86" Hg 1005.3 hPa